createdAt,value
2023-04-24T00:00:21.954Z,154.99
2023-04-24T00:01:06.689Z,146.99
2023-04-24T00:01:52.193Z,137.99
2023-04-24T00:02:36.919Z,130.99
2023-04-24T00:03:22.411Z,139.99
2023-04-24T00:04:07.266Z,140.99
2023-04-24T00:04:52.049Z,111.99
2023-04-24T00:05:37.134Z,141.99
2023-04-24T00:06:22.188Z,131.99
2023-04-24T00:07:07.138Z,119.99
2023-04-24T00:07:52.093Z,136.99
2023-04-24T00:08:37.209Z,153.99
2023-04-24T00:09:22.520Z,153.99
2023-04-24T00:10:07.815Z,141.99
2023-04-24T00:10:52.422Z,138.99
2023-04-24T00:11:37.276Z,135.99
2023-04-24T00:12:22.741Z,97.99
2023-04-24T00:13:07.686Z,147.99
2023-04-24T00:13:52.444Z,150.99
2023-04-24T00:14:37.618Z,127.99
2023-04-24T00:15:22.659Z,138.99
2023-04-24T00:16:07.719Z,114.99
2023-04-24T00:16:52.593Z,151.99
2023-04-24T00:17:37.792Z,142.99
2023-04-24T00:18:23.002Z,135.99
2023-04-24T00:19:07.858Z,132.99
2023-04-24T00:19:53.033Z,142.99
2023-04-24T00:20:38.053Z,142.99
2023-04-24T00:21:23.213Z,145.99
2023-04-24T00:22:08.066Z,135.99
2023-04-24T00:22:53.220Z,127.99
2023-04-24T00:23:39.017Z,104.99
2023-04-24T00:24:23.261Z,131.99
2023-04-24T00:25:08.185Z,122.99
2023-04-24T00:25:53.366Z,122.99
2023-04-24T00:26:38.406Z,126.99
2023-04-24T00:27:23.752Z,117.99
2023-04-24T00:28:08.517Z,117.99
2023-04-24T00:28:53.708Z,135.99
2023-04-24T00:29:38.574Z,133.99
2023-04-24T00:30:23.894Z,142.99
2023-04-24T00:31:08.709Z,135.99
2023-04-24T00:31:54.407Z,134.99
2023-04-24T00:32:38.789Z,139.99
2023-04-24T00:33:23.604Z,144.99
2023-04-24T00:34:09.104Z,146.99
2023-04-24T00:34:53.926Z,109.99
2023-04-24T00:35:39.425Z,149.99
2023-04-24T00:36:24.169Z,147.99
2023-04-24T00:37:09.445Z,152.99
2023-04-24T00:37:54.302Z,137.99
2023-04-24T00:38:39.213Z,137.99
2023-04-24T00:39:24.475Z,146.99
2023-04-24T00:40:09.716Z,136.98
2023-04-24T00:40:54.525Z,154.99
2023-04-24T00:41:39.534Z,154.99
2023-04-24T00:42:25.166Z,144.99
2023-04-24T00:43:10.493Z,128.99
2023-04-24T00:43:54.537Z,120.99
2023-04-24T00:44:39.861Z,124.99
2023-04-24T00:45:24.913Z,135.99
2023-04-24T00:46:09.806Z,136.99
2023-04-24T00:46:54.829Z,145.99
2023-04-24T00:47:40.125Z,150.99
2023-04-24T00:48:24.884Z,147.99
2023-04-24T00:49:09.799Z,144.99
2023-04-24T00:49:55.153Z,133.99
2023-04-24T00:50:39.801Z,134.99
2023-04-24T00:51:24.960Z,134.99
2023-04-24T00:52:10.242Z,141.99
2023-04-24T00:52:55.550Z,145.98
2023-04-24T00:53:40.235Z,144.99
2023-04-24T00:54:26.107Z,131.99
2023-04-24T00:55:10.572Z,133.98
2023-04-24T00:55:55.706Z,147.99
2023-04-24T00:56:41.086Z,130.99
2023-04-24T00:57:25.856Z,130.99
2023-04-24T00:58:10.940Z,132.99
2023-04-24T00:58:56.185Z,111.99
2023-04-24T00:59:41.001Z,130.99
2023-04-24T01:00:26.122Z,132.99
2023-04-24T01:01:11.009Z,128.99
2023-04-24T01:01:55.879Z,137.99
2023-04-24T01:02:41.253Z,122.99
2023-04-24T01:03:26.154Z,111.98
2023-04-24T01:04:11.756Z,128.99
2023-04-24T01:04:56.102Z,116.99
2023-04-24T01:05:40.927Z,77.99
2023-04-24T01:06:26.315Z,101.99
2023-04-24T01:07:11.581Z,124.98
2023-04-24T01:07:56.619Z,120.99
2023-04-24T01:08:41.428Z,111.99
2023-04-24T01:09:26.422Z,116.99
2023-04-24T01:10:11.603Z,111.99
2023-04-24T01:10:57.315Z,81.99
2023-04-24T01:11:41.720Z,80.99
2023-04-24T01:12:26.958Z,87.99
2023-04-24T01:13:11.940Z,87.99
2023-04-24T01:13:57.102Z,123.99
2023-04-24T01:14:41.720Z,123.99
2023-04-24T01:15:27.359Z,98.99
2023-04-24T01:16:11.873Z,129.99
2023-04-24T01:16:56.983Z,119.96
2023-04-24T01:17:42.477Z,98.78
2023-04-24T01:18:27.508Z,125.66
2023-04-24T01:19:12.378Z,127.99
2023-04-24T01:19:57.932Z,129.99
2023-04-24T01:20:42.679Z,83.99
2023-04-24T01:21:27.646Z,78.99
2023-04-24T01:22:12.891Z,92.99
2023-04-24T01:22:57.641Z,74.42
2023-04-24T01:23:42.409Z,102.98
2023-04-24T01:24:27.774Z,105.98
2023-04-24T01:25:12.619Z,121.98
2023-04-24T01:25:57.668Z,116.98
2023-04-24T01:26:42.862Z,118.98
2023-04-24T01:27:28.045Z,125.97
2023-04-24T01:28:13.059Z,116.91
2023-04-24T01:28:58.059Z,116.91
2023-04-24T01:29:43.405Z,94.99
2023-04-24T01:30:28.547Z,124.98
2023-04-24T01:31:13.092Z,138.97
2023-04-24T01:31:58.013Z,136.88
2023-04-24T01:32:43.185Z,171.97
2023-04-24T01:33:29.060Z,176.97
2023-04-24T01:34:13.550Z,160.98
2023-04-24T01:34:58.587Z,161.98
2023-04-24T01:35:44.054Z,160.98
2023-04-24T01:36:28.560Z,142.97
2023-04-24T01:37:13.514Z,154.97
2023-04-24T01:37:58.593Z,150.97
2023-04-24T01:38:43.623Z,141.97
2023-04-24T01:39:28.787Z,136.97
2023-04-24T01:40:13.640Z,148.96
2023-04-24T01:40:58.583Z,149.97
2023-04-24T01:41:43.645Z,146.96
2023-04-24T01:42:28.882Z,145.97
2023-04-24T01:43:14.322Z,143.97
2023-04-24T01:43:59.049Z,148.97
2023-04-24T01:44:44.195Z,137.96
2023-04-24T01:45:30.168Z,144.97
2023-04-24T01:46:14.385Z,148.97
2023-04-24T01:46:59.428Z,139.97
2023-04-24T01:47:44.638Z,153.97
2023-04-24T01:48:29.241Z,143.98
2023-04-24T01:49:14.348Z,147.98
2023-04-24T01:49:59.472Z,143.97
2023-04-24T01:50:44.538Z,157.98
2023-04-24T01:51:29.522Z,151.98
2023-04-24T01:52:14.542Z,142.98
2023-04-24T01:53:00.054Z,145.98
2023-04-24T01:53:44.999Z,145.98
2023-04-24T01:54:29.962Z,142.98
2023-04-24T01:55:15.187Z,149.97
2023-04-24T01:56:00.228Z,117.98
2023-04-24T01:56:45.087Z,137.98
2023-04-24T01:57:30.630Z,138.98
2023-04-24T01:58:14.968Z,146.98
2023-04-24T01:59:00.144Z,147.97
2023-04-24T01:59:45.131Z,152.98
2023-04-24T02:00:30.192Z,155.98
2023-04-24T02:01:15.137Z,158.98
2023-04-24T02:02:00.652Z,142.98
2023-04-24T02:02:47.397Z,143.98
2023-04-24T02:03:30.713Z,156.98
2023-04-24T02:04:15.857Z,149.98
2023-04-24T02:05:00.430Z,136.98
2023-04-24T02:05:45.580Z,147.98
2023-04-24T02:06:30.517Z,151.98
2023-04-24T02:07:15.746Z,151.97
2023-04-24T02:08:00.152Z,156.98
2023-04-24T02:08:45.884Z,149.98
2023-04-24T02:09:30.753Z,151.98
2023-04-24T02:10:16.053Z,160.98
2023-04-24T02:11:00.948Z,152.97
2023-04-24T02:11:46.018Z,156.98
2023-04-24T02:12:30.673Z,156.96
2023-04-24T02:13:15.772Z,152.98
2023-04-24T02:14:00.994Z,158.98
2023-04-24T02:14:46.300Z,159.98
2023-04-24T02:15:31.110Z,176.97
2023-04-24T02:16:16.664Z,95.99
2023-04-24T02:17:01.001Z,176.97
2023-04-24T02:17:46.016Z,170.96
2023-04-24T02:18:31.128Z,162.98
2023-04-24T02:19:16.673Z,156.98
2023-04-24T02:20:01.211Z,151.98
2023-04-24T02:20:46.171Z,161.98
2023-04-24T02:21:31.294Z,164.98
2023-04-24T02:22:16.626Z,150.98
2023-04-24T02:23:01.342Z,150.98
2023-04-24T02:23:46.309Z,145.98
2023-04-24T02:24:31.353Z,164.98
2023-04-24T02:25:16.365Z,166.98
2023-04-24T02:26:01.458Z,176.97
2023-04-24T02:26:46.627Z,155.98
2023-04-24T02:27:31.928Z,163.98
2023-04-24T02:28:16.596Z,163.98
2023-04-24T02:29:01.795Z,153.98
2023-04-24T02:29:47.237Z,164.96
2023-04-24T02:30:32.143Z,158.98
2023-04-24T02:31:17.260Z,162.98
2023-04-24T02:32:02.387Z,157.98
2023-04-24T02:32:47.168Z,152.98
2023-04-24T02:33:32.356Z,152.98
2023-04-24T02:34:17.021Z,155.98
2023-04-24T02:35:02.169Z,163.98
2023-04-24T02:35:47.429Z,146.98
2023-04-24T02:36:32.256Z,150.98
2023-04-24T02:37:17.682Z,148.98
2023-04-24T02:38:02.674Z,157.98
2023-04-24T02:38:47.447Z,167.98
2023-04-24T02:39:32.580Z,167.98
2023-04-24T02:40:17.844Z,171.96
2023-04-24T02:41:03.017Z,164.98
2023-04-24T02:41:47.751Z,164.98
2023-04-24T02:42:32.904Z,156.98
2023-04-24T02:43:18.314Z,158.98
2023-04-24T02:44:02.924Z,168.97
2023-04-24T02:44:47.975Z,158.98
2023-04-24T02:45:33.060Z,154.98
2023-04-24T02:46:18.661Z,160.98
2023-04-24T02:47:03.056Z,162.98
2023-04-24T02:47:48.160Z,155.98
2023-04-24T02:48:33.250Z,167.98
2023-04-24T02:49:18.556Z,161.98
2023-04-24T02:50:03.389Z,150.98
2023-04-24T02:50:48.362Z,155.98
2023-04-24T02:51:33.610Z,165.98
2023-04-24T02:52:18.586Z,166.98
2023-04-24T02:53:03.285Z,93.99
2023-04-24T02:53:48.764Z,93.99
2023-04-24T02:54:33.708Z,173.97
2023-04-24T02:55:18.869Z,165.98
2023-04-24T02:56:03.823Z,164.98
2023-04-24T02:56:48.801Z,158.98
2023-04-24T02:57:34.322Z,169.97
2023-04-24T02:58:18.783Z,171.97
2023-04-24T02:59:03.860Z,171.97
2023-04-24T02:59:48.902Z,165.98
2023-04-24T03:00:34.151Z,162.98
2023-04-24T03:01:19.187Z,159.98
2023-04-24T03:02:04.680Z,103.98
2023-04-24T03:02:49.266Z,158.98
2023-04-24T03:03:34.492Z,163.98
2023-04-24T03:04:19.590Z,177.97
2023-04-24T03:05:04.269Z,141.98
2023-04-24T03:05:49.362Z,147.98
2023-04-24T03:06:34.321Z,155.98
2023-04-24T03:07:19.484Z,159.97
2023-04-24T03:08:04.585Z,159.98
2023-04-24T03:08:49.192Z,167.98
2023-04-24T03:09:34.810Z,159.98
2023-04-24T03:10:19.706Z,164.98
2023-04-24T03:11:04.736Z,167.98
2023-04-24T03:11:49.737Z,157.98
2023-04-24T03:12:34.858Z,153.98
2023-04-24T03:13:19.911Z,162.98
2023-04-24T03:14:05.125Z,168.97
2023-04-24T03:14:50.419Z,174.97
2023-04-24T03:15:35.087Z,162.98
2023-04-24T03:16:21.280Z,177.97
2023-04-24T03:17:05.197Z,157.98
2023-04-24T03:17:50.069Z,157.98
2023-04-24T03:18:35.613Z,180.97
2023-04-24T03:19:20.400Z,177.97
2023-04-24T03:20:05.420Z,165.98
2023-04-24T03:20:50.379Z,170.97
2023-04-24T03:21:35.450Z,181.96
2023-04-24T03:22:20.698Z,184.97
2023-04-24T03:23:05.766Z,156.98
2023-04-24T03:23:50.808Z,156.98
2023-04-24T03:24:35.663Z,159.98
2023-04-24T03:25:20.993Z,164.98
2023-04-24T03:26:05.777Z,158.98
2023-04-24T03:26:51.205Z,159.97
2023-04-24T03:27:35.886Z,170.97
2023-04-24T03:28:20.857Z,170.97
2023-04-24T03:29:06.104Z,166.98
2023-04-24T03:29:51.099Z,177.97
2023-04-24T03:30:36.421Z,169.97
2023-04-24T03:31:21.209Z,175.97
2023-04-24T03:32:06.446Z,163.98
2023-04-24T03:32:51.437Z,173.97
2023-04-24T03:33:36.581Z,172.97
2023-04-24T03:34:21.525Z,157.98
2023-04-24T03:35:06.558Z,162.98
2023-04-24T03:35:51.352Z,160.98
2023-04-24T03:36:36.364Z,162.98
2023-04-24T03:37:21.531Z,167.98
2023-04-24T03:38:06.594Z,166.98
2023-04-24T03:38:51.638Z,154.98
2023-04-24T03:39:36.487Z,169.97
2023-04-24T03:40:22.385Z,160.98
2023-04-24T03:41:06.896Z,161.98
2023-04-24T03:41:51.851Z,163.98
2023-04-24T03:42:39.155Z,149.98
2023-04-24T03:43:22.066Z,173.97
2023-04-24T03:44:07.053Z,163.98
2023-04-24T03:44:51.829Z,170.97
2023-04-24T03:45:37.262Z,159.98
2023-04-24T03:46:22.725Z,164.98
2023-04-24T03:47:07.252Z,167.97
2023-04-24T03:47:52.407Z,174.98
2023-04-24T03:48:37.204Z,164.97
2023-04-24T03:49:23.181Z,169.98
2023-04-24T03:50:07.487Z,152.97
2023-04-24T03:50:52.578Z,168.97
2023-04-24T03:51:38.142Z,157.99
2023-04-24T03:52:22.853Z,161.98
2023-04-24T03:53:07.410Z,159.98
2023-04-24T03:53:52.665Z,171.97
2023-04-24T03:54:37.712Z,166.98
2023-04-24T03:55:25.483Z,166.98
2023-04-24T03:56:08.125Z,160.98
2023-04-24T03:56:53.099Z,165.98
2023-04-24T03:57:38.197Z,165.98
2023-04-24T03:58:23.100Z,158.99
2023-04-24T03:59:08.079Z,164.98
2023-04-24T03:59:53.007Z,164.98
2023-04-24T04:00:38.203Z,167.98
2023-04-24T04:01:23.884Z,166.98
2023-04-24T04:02:08.485Z,181.98
2023-04-24T04:02:53.311Z,156.99
2023-04-24T04:03:39.047Z,163.98
2023-04-24T04:04:23.564Z,179.97
2023-04-24T04:05:08.592Z,164.98
2023-04-24T04:05:53.361Z,159.98
2023-04-24T04:06:38.820Z,172.97
2023-04-24T04:07:23.988Z,185.97
2023-04-24T04:08:09.277Z,174.97
2023-04-24T04:08:53.887Z,167.98
2023-04-24T04:09:38.952Z,159.98
2023-04-24T04:10:24.002Z,168.97
2023-04-24T04:11:09.166Z,168.97
2023-04-24T04:11:54.047Z,172.97
2023-04-24T04:12:38.969Z,168.97
2023-04-24T04:13:24.147Z,172.97
2023-04-24T04:14:09.178Z,173.97
2023-04-24T04:14:54.131Z,166.98
2023-04-24T04:15:39.414Z,165.98
2023-04-24T04:16:24.771Z,162.98
2023-04-24T04:17:09.202Z,166.98
2023-04-24T04:17:54.484Z,166.98
2023-04-24T04:18:39.561Z,159.98
2023-04-24T04:19:24.472Z,163.98
2023-04-24T04:20:09.446Z,164.98
2023-04-24T04:20:54.895Z,172.97
2023-04-24T04:21:39.800Z,176.97
2023-04-24T04:22:24.692Z,173.97
2023-04-24T04:23:09.757Z,157.98
2023-04-24T04:23:55.432Z,165.98
2023-04-24T04:24:39.688Z,167.98
2023-04-24T04:25:25.128Z,155.98
2023-04-24T04:26:09.780Z,178.97
2023-04-24T04:26:54.942Z,166.98
2023-04-24T04:27:39.943Z,176.97
2023-04-24T04:28:25.902Z,168.97
2023-04-24T04:29:09.904Z,115.98
2023-04-24T04:29:55.421Z,164.96
2023-04-24T04:30:40.439Z,157.98
2023-04-24T04:31:25.298Z,171.97
2023-04-24T04:32:10.285Z,158.98
2023-04-24T04:32:55.450Z,161.98
2023-04-24T04:33:40.674Z,168.97
2023-04-24T04:34:25.652Z,157.98
2023-04-24T04:35:10.633Z,158.98
2023-04-24T04:35:55.517Z,150.98
2023-04-24T04:36:40.664Z,159.98
2023-04-24T04:37:25.712Z,163.98
2023-04-24T04:38:10.844Z,161.98
2023-04-24T04:38:55.742Z,171.97
2023-04-24T04:39:41.247Z,164.98
2023-04-24T04:40:26.567Z,169.97
2023-04-24T04:41:11.158Z,173.97
2023-04-24T04:41:56.892Z,167.98
2023-04-24T04:42:41.182Z,153.98
2023-04-24T04:43:26.565Z,148.98
2023-04-24T04:44:11.448Z,155.98
2023-04-24T04:44:56.404Z,156.98
2023-04-24T04:45:41.671Z,100.99
2023-04-24T04:46:27.241Z,158.98
2023-04-24T04:47:11.358Z,164.98
2023-04-24T04:47:56.839Z,139.98
2023-04-24T04:48:41.802Z,171.97
2023-04-24T04:49:27.168Z,162.98
2023-04-24T04:50:12.326Z,156.98
2023-04-24T04:50:57.266Z,159.98
2023-04-24T04:51:43.078Z,162.98
2023-04-24T04:52:26.874Z,162.98
2023-04-24T04:53:12.137Z,171.97
2023-04-24T04:53:56.979Z,159.98
2023-04-24T04:54:42.438Z,161.98
2023-04-24T04:55:27.399Z,159.98
2023-04-24T04:56:12.461Z,153.98
2023-04-24T04:56:57.546Z,160.98
2023-04-24T04:57:42.558Z,159.98
2023-04-24T04:58:27.756Z,155.98
2023-04-24T04:59:12.377Z,172.97
2023-04-24T04:59:57.625Z,147.98
2023-04-24T05:00:42.475Z,149.98
2023-04-24T05:01:28.137Z,164.98
2023-04-24T05:02:13.103Z,156.98
2023-04-24T05:03:05.933Z,158.98
2023-04-24T05:03:43.314Z,172.97
2023-04-24T05:04:28.318Z,162.98
2023-04-24T05:05:13.300Z,156.98
2023-04-24T05:05:58.154Z,169.97
2023-04-24T05:06:43.350Z,169.97
2023-04-24T05:07:28.699Z,151.98
2023-04-24T05:08:23.670Z,152.98
2023-04-24T05:08:58.598Z,155.98
2023-04-24T05:09:43.655Z,153.96
2023-04-24T05:10:28.722Z,148.98
2023-04-24T05:11:13.682Z,151.98
2023-04-24T05:11:58.734Z,162.96
2023-04-24T05:12:45.696Z,164.98
2023-04-24T05:13:38.287Z,154.98
2023-04-24T05:14:13.961Z,151.98
2023-04-24T05:14:58.588Z,174.97
2023-04-24T05:15:43.913Z,160.98
2023-04-24T05:16:29.094Z,152.98
2023-04-24T05:17:14.065Z,147.98
2023-04-24T05:17:59.108Z,159.98
2023-04-24T05:18:44.223Z,165.96
2023-04-24T05:19:29.198Z,153.98
2023-04-24T05:20:14.561Z,160.98
2023-04-24T05:20:59.556Z,154.98
2023-04-24T05:21:44.478Z,96.99
2023-04-24T05:22:29.427Z,158.98
2023-04-24T05:23:14.381Z,160.98
2023-04-24T05:23:59.332Z,153.98
2023-04-24T05:24:44.514Z,149.98
2023-04-24T05:25:29.515Z,168.97
2023-04-24T05:26:14.853Z,148.98
2023-04-24T05:26:59.663Z,160.98
2023-04-24T05:27:44.839Z,170.97
2023-04-24T05:28:29.665Z,167.98
2023-04-24T05:29:15.205Z,150.98
2023-04-24T05:29:59.783Z,161.98
2023-04-24T05:30:45.022Z,161.98
2023-04-24T05:31:30.047Z,177.97
2023-04-24T05:32:15.059Z,165.98
2023-04-24T05:33:01.246Z,157.98
2023-04-24T05:33:45.449Z,161.98
2023-04-24T05:34:30.019Z,170.97
2023-04-24T05:35:15.307Z,155.98
2023-04-24T05:36:00.246Z,159.96
2023-04-24T05:36:45.401Z,160.98
2023-04-24T05:37:30.511Z,151.97
2023-04-24T05:38:15.337Z,142.97
2023-04-24T05:39:00.498Z,157.97
2023-04-24T05:39:45.726Z,150.97
2023-04-24T05:40:30.717Z,155.97
2023-04-24T05:41:15.636Z,165.97
2023-04-24T05:42:00.941Z,164.97
2023-04-24T05:42:45.743Z,163.96
2023-04-24T05:43:30.800Z,164.97
2023-04-24T05:44:15.871Z,170.97
2023-04-24T05:45:01.000Z,172.97
2023-04-24T05:45:46.018Z,143.97
2023-04-24T05:46:31.078Z,165.97
2023-04-24T05:47:16.494Z,156.97
2023-04-24T05:48:01.371Z,162.97
2023-04-24T05:48:46.091Z,162.97
2023-04-24T05:49:31.345Z,164.97
2023-04-24T05:50:16.256Z,157.97
2023-04-24T05:51:01.469Z,167.97
2023-04-24T05:51:46.623Z,160.96
2023-04-24T05:52:31.377Z,158.97
2023-04-24T05:53:16.494Z,162.97
2023-04-24T05:54:01.598Z,166.97
2023-04-24T05:54:46.644Z,148.97
2023-04-24T05:55:31.672Z,164.97
2023-04-24T05:56:16.766Z,149.97
2023-04-24T05:57:01.428Z,162.97
2023-04-24T05:57:46.779Z,157.97
2023-04-24T05:58:31.992Z,153.96
2023-04-24T05:59:16.777Z,152.97
2023-04-24T06:00:01.844Z,143.97
2023-04-24T06:00:46.982Z,144.97
2023-04-24T06:01:32.200Z,152.97
2023-04-24T06:02:17.036Z,140.97
2023-04-24T06:03:02.458Z,148.97
2023-04-24T06:03:47.263Z,154.96
2023-04-24T06:04:32.609Z,146.97
2023-04-24T06:05:17.638Z,150.97
2023-04-24T06:06:02.655Z,150.96
2023-04-24T06:06:47.244Z,157.97
2023-04-24T06:07:32.097Z,138.96
2023-04-24T06:08:17.371Z,142.97
2023-04-24T06:09:02.525Z,152.97
2023-04-24T06:09:47.368Z,150.97
2023-04-24T06:10:32.711Z,161.97
2023-04-24T06:11:17.680Z,135.97
2023-04-24T06:12:02.905Z,135.97
2023-04-24T06:12:47.891Z,148.97
2023-04-24T06:13:33.367Z,144.97
2023-04-24T06:14:18.170Z,151.97
2023-04-24T06:15:02.669Z,151.97
2023-04-24T06:15:47.717Z,152.97
2023-04-24T06:16:32.637Z,145.96
2023-04-24T06:17:18.049Z,123.88
2023-04-24T06:18:03.154Z,102.98
2023-04-24T06:18:48.149Z,130.98
2023-04-24T06:19:33.104Z,100.98
2023-04-24T06:20:18.383Z,130.98
2023-04-24T06:21:03.031Z,127.98
2023-04-24T06:21:48.176Z,121.98
2023-04-24T06:22:33.594Z,139.97
2023-04-24T06:23:18.442Z,124.98
2023-04-24T06:24:03.653Z,131.98
2023-04-24T06:24:48.593Z,131.98
2023-04-24T06:25:33.554Z,124.98
2023-04-24T06:26:18.644Z,134.98
2023-04-24T06:27:03.584Z,145.97
2023-04-24T06:27:48.417Z,131.98
2023-04-24T06:28:33.373Z,130.98
2023-04-24T06:29:18.933Z,143.97
2023-04-24T06:30:03.782Z,139.96
2023-04-24T06:30:48.560Z,139.97
2023-04-24T06:31:33.780Z,139.97
2023-04-24T06:32:18.945Z,148.97
2023-04-24T06:33:12.992Z,125.97
2023-04-24T06:33:50.128Z,145.97
2023-04-24T06:34:34.336Z,134.97
2023-04-24T06:35:19.224Z,140.97
2023-04-24T06:36:04.138Z,142.97
2023-04-24T06:36:49.194Z,134.95
2023-04-24T06:37:34.773Z,131.97
2023-04-24T06:38:19.520Z,138.97
2023-04-24T06:39:04.356Z,135.95
2023-04-24T06:39:49.641Z,140.96
2023-04-24T06:40:34.408Z,145.95
2023-04-24T06:41:19.582Z,139.97
2023-04-24T06:42:04.610Z,125.97
2023-04-24T06:42:49.518Z,134.97
2023-04-24T06:43:34.202Z,141.97
2023-04-24T06:44:19.919Z,139.97
2023-04-24T06:45:04.828Z,146.97
2023-04-24T06:45:49.795Z,145.95
2023-04-24T06:46:34.934Z,131.97
2023-04-24T06:47:19.693Z,131.97
2023-04-24T06:48:04.894Z,153.96
2023-04-24T06:48:49.784Z,153.96
2023-04-24T06:49:35.061Z,146.96
2023-04-24T06:50:20.592Z,137.96
2023-04-24T06:51:05.938Z,137.96
2023-04-24T06:51:50.095Z,136.96
2023-04-24T06:52:35.236Z,121.96
2023-04-24T06:53:20.161Z,128.96
2023-04-24T06:54:05.186Z,135.95
2023-04-24T06:54:50.863Z,154.95
2023-04-24T06:55:35.215Z,146.95
2023-04-24T06:56:20.665Z,146.95
2023-04-24T06:57:05.514Z,145.95
2023-04-24T06:57:50.368Z,139.95
2023-04-24T06:58:35.663Z,141.95
2023-04-24T06:59:20.335Z,139.96
2023-04-24T07:00:06.055Z,139.96
2023-04-24T07:00:51.063Z,148.96
2023-04-24T07:01:35.980Z,145.95
2023-04-24T07:02:21.750Z,141.97
2023-04-24T07:03:05.736Z,144.97
2023-04-24T07:03:50.785Z,134.98
2023-04-24T07:04:36.371Z,135.97
2023-04-24T07:05:21.163Z,135.97
2023-04-24T07:06:05.917Z,145.97
2023-04-24T07:06:51.118Z,138.97
2023-04-24T07:07:36.002Z,135.96
2023-04-24T07:08:21.178Z,126.97
2023-04-24T07:09:06.442Z,132.93
2023-04-24T07:09:51.462Z,134.96
2023-04-24T07:10:36.444Z,137.96
2023-04-24T07:11:21.614Z,141.97
2023-04-24T07:12:06.552Z,134.96
2023-04-24T07:12:51.295Z,146.96
2023-04-24T07:13:36.574Z,138.96
2023-04-24T07:14:22.086Z,142.96
2023-04-24T07:15:06.870Z,105.97
2023-04-24T07:15:52.141Z,105.97
2023-04-24T07:16:37.412Z,105.97
2023-04-24T07:17:22.876Z,105.97
2023-04-24T07:18:07.160Z,105.97
2023-04-24T07:18:52.049Z,95.76
2023-04-24T07:19:37.213Z,95.76
2023-04-24T07:20:22.977Z,95.76
2023-04-24T07:21:07.434Z,95.76
2023-04-24T07:21:53.134Z,95.76
2023-04-24T07:22:37.037Z,95.76
2023-04-24T07:23:22.852Z,95.76
2023-04-24T07:24:07.439Z,95.76
2023-04-24T07:24:52.510Z,95.76
2023-04-24T07:25:38.073Z,95.76
2023-04-24T07:26:23.514Z,95.76
2023-04-24T07:27:08.081Z,95.76
2023-04-24T07:27:52.739Z,95.76
2023-04-24T07:28:37.793Z,95.76
2023-04-24T07:29:23.057Z,95.76
2023-04-24T07:30:08.552Z,95.76
2023-04-24T07:30:53.161Z,95.76
2023-04-24T07:31:38.536Z,95.76
2023-04-24T07:32:23.078Z,95.76
2023-04-24T07:33:08.209Z,95.76
2023-04-24T07:33:53.188Z,95.76
2023-04-24T07:34:38.276Z,95.76
2023-04-24T07:35:23.735Z,95.76
2023-04-24T07:36:08.150Z,95.76
2023-04-24T07:36:53.039Z,95.76
2023-04-24T07:37:38.331Z,95.76
2023-04-24T07:38:23.688Z,58.87
2023-04-24T07:39:08.476Z,58.87
2023-04-24T07:39:53.506Z,51.78
2023-04-24T07:40:38.965Z,51.78
2023-04-24T07:41:25.108Z,51.78
2023-04-24T07:42:08.513Z,50.96
2023-04-24T07:42:53.772Z,56.83
2023-04-24T07:43:38.752Z,69.68
2023-04-24T07:44:23.764Z,69.68
2023-04-24T07:45:09.026Z,69.68
2023-04-24T07:45:54.124Z,69.68
2023-04-24T07:46:40.128Z,69.68
2023-04-24T07:47:27.117Z,69.68
2023-04-24T07:48:09.187Z,53.21
2023-04-24T07:49:09.224Z,60.10
2023-04-24T07:49:39.136Z,57.32
2023-04-24T07:50:24.060Z,64.65
2023-04-24T07:51:09.107Z,69.71
2023-04-24T07:51:54.231Z,60.00
2023-04-24T07:52:39.357Z,55.19
2023-04-24T07:53:24.216Z,58.36
2023-04-24T07:54:08.991Z,58.36
2023-04-24T07:54:54.048Z,58.48
2023-04-24T07:55:38.908Z,60.00
2023-04-24T07:56:25.833Z,61.77
2023-04-24T07:57:09.626Z,58.50
2023-04-24T07:57:55.027Z,62.66
2023-04-24T07:58:39.645Z,63.49
2023-04-24T07:59:24.377Z,65.16
2023-04-24T08:00:09.333Z,64.52
2023-04-24T08:00:54.701Z,70.50
2023-04-24T08:01:39.874Z,74.23
2023-04-24T08:02:24.933Z,80.26
2023-04-24T08:03:09.860Z,76.25
2023-04-24T08:03:55.146Z,66.57
2023-04-24T08:04:39.958Z,84.92
2023-04-24T08:05:24.926Z,74.57
2023-04-24T08:06:10.821Z,73.61
2023-04-24T08:06:55.161Z,82.32
2023-04-24T08:07:40.045Z,71.08
2023-04-24T08:08:25.164Z,78.39
2023-04-24T08:09:10.633Z,72.58
2023-04-24T08:09:55.616Z,71.41
2023-04-24T08:10:40.638Z,71.41
2023-04-24T08:11:26.184Z,74.12
2023-04-24T08:12:11.282Z,74.12
2023-04-24T08:12:56.091Z,74.12
2023-04-24T08:13:40.777Z,74.12
2023-04-24T08:14:26.240Z,74.12
2023-04-24T08:15:11.053Z,74.12
2023-04-24T08:15:57.916Z,74.12
2023-04-24T08:16:40.531Z,66.18
2023-04-24T08:17:26.565Z,77.99
2023-04-24T08:18:11.202Z,74.97
2023-04-24T08:18:57.900Z,74.97
2023-04-24T08:19:41.252Z,76.77
2023-04-24T08:20:25.752Z,78.46
2023-04-24T08:21:11.179Z,78.46
2023-04-24T08:21:56.284Z,78.46
2023-04-24T08:22:41.339Z,78.46
2023-04-24T08:23:28.156Z,78.46
2023-04-24T08:24:11.411Z,78.46
2023-04-24T08:24:58.556Z,78.46
2023-04-24T08:25:41.690Z,78.46
2023-04-24T08:26:26.616Z,78.46
2023-04-24T08:27:11.684Z,78.46
2023-04-24T08:27:56.423Z,78.46
2023-04-24T08:28:41.592Z,78.46
2023-04-24T08:29:26.948Z,78.46
2023-04-24T08:30:11.686Z,78.46
2023-04-24T08:30:56.978Z,78.46
2023-04-24T08:31:42.123Z,78.46
2023-04-24T08:32:27.001Z,78.46
2023-04-24T08:33:12.026Z,78.46
2023-04-24T08:33:59.849Z,78.46
2023-04-24T08:34:41.668Z,90.00
2023-04-24T08:35:26.886Z,105.99
2023-04-24T08:36:12.308Z,105.99
2023-04-24T08:36:56.716Z,80.00
2023-04-24T08:37:42.174Z,98.99
2023-04-24T08:38:27.003Z,103.99
2023-04-24T08:39:12.350Z,103.99
2023-04-24T08:39:57.443Z,103.99
2023-04-24T08:40:42.536Z,103.99
2023-04-24T08:41:27.653Z,103.99
2023-04-24T08:42:12.606Z,103.99
2023-04-24T08:42:57.954Z,84.00
2023-04-24T08:43:42.736Z,78.99
2023-04-24T08:44:27.563Z,78.99
2023-04-24T08:45:12.451Z,116.99
2023-04-24T08:45:57.884Z,122.99
2023-04-24T08:46:43.716Z,122.99
2023-04-24T08:47:27.814Z,122.99
2023-04-24T08:48:23.419Z,122.99
2023-04-24T08:48:58.003Z,122.99
2023-04-24T08:49:43.491Z,122.99
2023-04-24T08:50:28.232Z,122.99
2023-04-24T08:51:13.287Z,122.99
2023-04-24T08:51:58.539Z,122.99
2023-04-24T08:52:44.007Z,83.99
2023-04-24T08:53:28.152Z,102.99
2023-04-24T08:54:13.312Z,124.99
2023-04-24T08:54:58.243Z,87.99
2023-04-24T08:55:43.001Z,116.99
2023-04-24T08:56:28.652Z,116.99
2023-04-24T08:57:13.014Z,104.99
2023-04-24T08:57:58.833Z,104.99
2023-04-24T08:58:43.777Z,104.99
2023-04-24T08:59:28.333Z,101.98
2023-04-24T09:00:13.470Z,101.98
2023-04-24T09:00:59.514Z,101.98
2023-04-24T09:01:44.055Z,101.98
2023-04-24T09:02:29.006Z,101.98
2023-04-24T09:03:14.019Z,101.98
2023-04-24T09:03:58.899Z,107.99
2023-04-24T09:04:43.996Z,107.99
2023-04-24T09:05:29.248Z,107.99
2023-04-24T09:06:13.800Z,107.99
2023-04-24T09:06:58.802Z,133.98
2023-04-24T09:07:43.704Z,116.14
2023-04-24T09:08:29.015Z,116.14
2023-04-24T09:09:13.922Z,108.98
2023-04-24T09:09:58.978Z,108.98
2023-04-24T09:10:44.065Z,108.98
2023-04-24T09:11:29.403Z,108.98
2023-04-24T09:12:14.481Z,108.98
2023-04-24T09:12:59.208Z,124.98
2023-04-24T09:13:44.059Z,124.98
2023-04-24T09:14:29.415Z,124.98
2023-04-24T09:15:14.769Z,124.98
2023-04-24T09:15:59.996Z,124.98
2023-04-24T09:16:44.635Z,124.98
2023-04-24T09:17:30.627Z,124.98
2023-04-24T09:18:14.735Z,124.98
2023-04-24T09:18:59.771Z,124.98
2023-04-24T09:19:44.930Z,124.98
2023-04-24T09:20:29.824Z,124.98
2023-04-24T09:21:15.021Z,124.98
2023-04-24T09:22:00.298Z,124.98
2023-04-24T09:22:45.239Z,124.98
2023-04-24T09:23:30.169Z,124.98
2023-04-24T09:24:15.059Z,166.98
2023-04-24T09:25:00.325Z,166.98